Latest Weather Observations for Tibooburra Airport

IDN60801

Issued at 5:03 am EST Wednesday 18 September 2019 (issued every 10 minutes, with the page automatically refreshed every 10 minutes)

About weather observations | Map of weather stations | Latest weather observations for NSW | Other Formats
Station Details ID: 046126 Name: TIBOOBURRA AIRPORT Lat: -29.44 Lon: 142.06 Height: 176.4 m
Data from the previous 72 hours. | See also: Recent months at Tibooburra Airport
Date/Time
EST
Temp
°C
App
Temp
°C
Dew
Point
°C
Rel
Hum
%
Delta-T
°C
Wind Press
QNH
hPa
Press
MSL
hPa
Rain since
9am
mm
Dir  Spd
km/h
Gust
km/h
Spd
kts
Gust
kts
18/05:00am 7.7 3.5 -3.5 45 4.0 SSE 9 11 5 6 1024.3 1023.9 0.0
18/04:30am 8.9 4.1 -2.7 44 4.4 SE 13 17 7 9 1024.0 1023.6 0.0
18/04:00am 9.3 4.1 -2.9 42 4.6 SE 15 19 8 10 1024.1 1023.7 0.0
18/03:30am 9.8 4.6 -2.8 41 4.8 SE 15 19 8 10 1024.4 1024.0 0.0
18/03:00am 10.3 4.3 -3.0 39 5.0 SE 19 24 10 13 1024.2 1023.8 0.0
18/02:30am 10.2 4.4 -4.2 36 5.3 SSE 17 20 9 11 1024.4 1024.0 0.0
18/02:00am 10.4 4.0 -5.2 33 5.6 SSE 20 26 11 14 1024.3 1023.9 0.0
18/01:30am 10.6 4.7 -5.4 32 5.8 SSE 17 20 9 11 1024.9 1024.5 0.0
18/01:00am 10.7 4.8 -6.1 30 5.9 SSE 17 20 9 11 1024.9 1024.5 0.0
18/12:30am 10.8 4.8 -6.5 29 6.1 SSE 17 20 9 11 1025.2 1024.8 0.0
18/12:00am 11.1 5.0 -7.2 27 6.3 SSE 17 20 9 11 1025.3 1024.9 0.0
 
Date/Time
EST
Temp
°C
App
Temp
°C
Dew
Point
°C
Rel
Hum
%
Delta-T
°C
Wind Press
QNH
hPa
Press
MSL
hPa
Rain since
9am
mm
Dir  Spd
km/h
Gust
km/h
Spd
kts
Gust
kts
17/11:30pm 11.3 5.2 -7.5 26 6.5 SSE 17 20 9 11 1025.6 1025.2 0.0
17/11:00pm 11.7 5.6 -8.2 24 6.8 SSE 17 20 9 11 1025.7 1025.3 0.0
17/10:30pm 12.4 5.6 -8.7 22 7.2 SSE 20 24 11 13 1025.7 1025.3 0.0
17/10:00pm 12.7 6.1 -9.7 20 7.5 SE 19 26 10 14 1025.5 1025.1 0.0
17/09:30pm 13.1 6.1 -11.4 17 7.9 SE 20 26 11 14 1025.3 1024.9 0.0
17/09:00pm 13.4 6.6 -12.7 15 8.2 SSE 19 22 10 12 1025.2 1024.8 0.0
17/08:30pm 13.9 7.5 -12.3 15 8.4 SSE 17 20 9 11 1025.0 1024.6 0.0
17/08:00pm 14.7 8.2 -12.5 14 8.7 SSE 17 22 9 12 1024.6 1024.2 0.0
17/07:30pm 15.4 8.9 -12.8 13 9.2 SSE 17 22 9 12 1024.2 1023.8 0.0
17/07:00pm 16.1 9.2 -13.3 12 9.5 SSE 19 24 10 13 1023.9 1023.5 0.0
17/06:30pm 16.8 9.7 -13.8 11 9.9 S 20 28 11 15 1023.3 1022.9 0.0
17/06:00pm 17.5 9.9 -15.7 9 10.4 SSE 22 32 12 17 1022.9 1022.5 0.0
17/05:30pm 18.1 10.1 -16.6 8 10.8 SSE 24 32 13 17 1022.9 1022.5 0.0
17/05:00pm 18.6 10.6 -16.3 8 11.0 SSE 24 30 13 16 1022.8 1022.4 0.0
17/04:30pm 18.5 10.1 -16.3 8 11.0 SSE 26 41 14 22 1022.5 1022.1 0.0
17/04:00pm 18.6 10.2 -16.3 8 11.0 SSE 26 35 14 19 1022.0 1021.7 0.0
17/03:30pm 18.0 10.1 -15.3 9 10.6 SSE 24 33 13 18 1022.5 1022.1 0.0
17/03:00pm 17.7 9.7 -15.5 9 10.5 SSE 24 33 13 18 1022.6 1022.2 0.0
17/02:30pm 18.2 10.3 -15.2 9 10.7 S 24 35 13 19 1022.7 1022.3 0.0
17/02:00pm 17.7 9.9 -13.1 11 10.2 SSE 24 35 13 19 1022.9 1022.5 0.0
17/01:30pm 16.7 9.0 -11.8 13 9.6 SSE 24 37 13 20 1023.3 1022.9 0.0
17/01:00pm 17.0 8.3 -9.0 16 9.3 SSE 30 43 16 23 1023.4 1023.0 0.0
17/12:30pm 16.0 7.8 -8.3 18 8.8 SSE 28 37 15 20 1023.7 1023.3 0.0
17/12:00pm 15.1 6.2 -7.0 21 8.1 SSE 32 41 17 22 1023.8 1023.4 0.0
17/11:34am 15.4 7.4 -5.6 23 8.0 SSE 28 46 15 25 1024.0 1023.6 0.0
17/11:30am 14.6 6.2 -5.7 24 7.6 SSE 30 46 16 25 1024.1 1023.7 0.0
17/11:00am 14.4 5.6 -6.4 23 7.6 SE 32 43 17 23 1024.4 1024.0 0.0
17/10:30am 13.7 4.5 -4.9 27 7.0 SSE 35 44 19 24 1024.5 1024.1 0.0
17/10:00am 12.7 3.0 -5.3 28 6.6 SE 37 56 20 30 1024.7 1024.3 0.0
17/09:58am 13.0 3.4 -5.1 28 6.8 SE 37 56 20 30 1024.6 1024.2 0.0
17/09:30am 12.2 2.0 -3.2 34 5.9 SSE 41 50 22 27 1024.7 1024.3 0.0
17/09:00am 11.8 2.5 -2.0 38 5.4 SE 37 46 20 25 1024.5 1024.1 0.0
17/08:30am 11.2 2.1 -0.9 43 4.9 SSE 37 50 20 27 1024.3 1023.9 0.0
17/08:00am 10.6 2.6 0.1 48 4.3 SSE 32 44 17 24 1024.1 1023.7 0.0
17/07:30am 10.1 2.6 1.2 54 3.7 SSE 30 39 16 21 1023.8 1023.4 0.0
17/07:00am 9.6 1.7 2.2 60 3.1 SSE 33 44 18 24 1023.2 1022.8 0.0
17/06:30am 9.3 2.5 3.3 66 2.6 SSE 28 39 15 21 1022.6 1022.2 0.0
17/06:00am 9.5 2.1 4.1 69 2.4 SSE 32 41 17 22 1021.9 1021.6 0.0
17/05:30am 9.7 2.4 4.3 69 2.4 SSE 32 43 17 23 1021.3 1020.9 0.0
17/05:00am 9.8 1.2 4.4 69 2.4 S 39 50 21 27 1021.1 1020.7 0.0
17/04:30am 10.0 1.3 4.2 67 2.6 S 39 50 21 27 1020.9 1020.5 0.0
17/04:00am 10.9 3.0 4.4 64 2.9 S 35 50 19 27 1020.5 1020.1 0.0
17/03:32am 11.7 3.8 4.4 61 3.3 S 35 54 19 29 1020.3 1019.9 0.0
17/03:30am 11.8 3.9 4.5 61 3.3 S 35 46 19 25 1020.3 1019.9 0.0
17/03:00am 12.2 3.7 5.1 62 3.3 S 39 50 21 27 1020.0 1019.6 0.0
17/02:30am 13.1 5.6 4.3 55 4.1 S 33 43 18 23 1019.9 1019.5 0.0
17/02:00am 13.5 5.6 4.1 53 4.3 S 35 44 19 24 1019.8 1019.4 0.0
17/01:30am 14.0 5.2 3.8 50 4.7 S 39 52 21 28 1019.8 1019.4 0.0
17/01:00am 14.8 5.7 3.9 48 5.0 S 41 56 22 30 1019.6 1019.2 0.0
17/12:30am 16.6 8.9 3.3 41 6.2 S 33 46 18 25 1019.3 1018.9 0.0
17/12:24am 17.3 9.6 3.2 39 6.6 S 33 52 18 28 1019.0 1018.6 0.0
17/12:00am 18.0 8.2 3.5 38 6.8 S 44 54 24 29 1019.0 1018.6 0.0
 
Date/Time
EST
Temp
°C
App
Temp
°C
Dew
Point
°C
Rel
Hum
%
Delta-T
°C
Wind Press
QNH
hPa
Press
MSL
hPa
Rain since
9am
mm
Dir  Spd
km/h
Gust
km/h
Spd
kts
Gust
kts
16/11:35pm 18.6 10.8 2.9 35 7.3 S 33 54 18 29 1018.8 1018.4 0.0
16/11:30pm 18.8 11.2 3.0 35 7.4 SSE 32 41 17 22 1018.6 1018.2 0.0
16/11:00pm 19.3 11.3 3.9 36 7.4 S 35 46 19 25 1018.3 1017.9 0.0
16/10:30pm 19.9 11.2 4.0 35 7.7 S 39 65 21 35 1018.0 1017.6 0.0
16/10:06pm 20.6 11.5 4.2 34 8.0 S 41 59 22 32 1017.8 1017.4 0.0
16/10:00pm 20.7 12.0 4.3 34 8.0 S 39 50 21 27 1017.7 1017.3 0.0
16/09:30pm 22.1 14.6 4.7 32 8.6 S 33 50 18 27 1017.3 1016.9 0.0
16/09:00pm 22.9 15.2 3.4 28 9.5 S 33 44 18 24 1016.7 1016.2 0.0
16/08:30pm 23.7 15.8 2.0 24 10.4 S 33 48 18 26 1016.1 1015.7 0.0
16/08:27pm 23.8 16.6 0.8 22 10.7 S 28 46 15 25 1016.1 1015.7 0.0
16/08:00pm 27.5 20.5 -6.8 10 14.3 SSE 22 32 12 17 1015.3 1014.9 0.0
16/07:30pm 28.4 20.7 -10.7 7 15.4 SSW 24 33 13 18 1015.0 1014.6 0.0
16/07:00pm 29.5 23.1 -11.8 6 16.1 W 17 24 9 13 1014.6 1014.2 0.0
16/06:30pm 30.2 23.3 -11.3 6 16.5 W 20 26 11 14 1014.5 1014.1 0.0
16/06:00pm 30.8 23.0 -13.1 5 17.0 W 24 32 13 17 1014.4 1014.0 0.0
16/05:30pm 31.3 23.1 -12.8 5 17.2 W 26 35 14 19 1014.4 1014.0 0.0
16/05:00pm 32.5 23.4 -14.7 4 18.1 W 30 41 16 22 1014.3 1013.9 0.0
16/04:30pm 32.6 23.9 -14.6 4 18.1 WSW 28 39 15 21 1014.3 1013.9 0.0
16/04:00pm 32.6 24.3 -14.6 4 18.1 WSW 26 37 14 20 1014.4 1014.0 0.0
16/03:30pm 32.6 23.9 -14.6 4 18.1 W 28 39 15 21 1014.6 1014.2 0.0
16/03:00pm 33.0 24.0 -14.3 4 18.3 WNW 30 46 16 25 1014.9 1014.5 0.0
16/02:57pm 33.2 24.6 -14.2 4 18.4 WNW 28 46 15 25 1014.9 1014.5 0.0
16/02:30pm 33.2 24.9 -14.2 4 18.4 W 26 41 14 22 1015.2 1014.8 0.0
16/02:00pm 33.2 24.6 -14.2 4 18.4 W 28 39 15 21 1015.5 1015.1 0.0
16/01:54pm 32.1 23.4 -14.9 4 17.9 W 28 46 15 25 1015.6 1015.2 0.0
16/01:30pm 32.2 23.1 -14.9 4 17.9 W 30 44 16 24 1015.9 1015.5 0.0
16/01:00pm 32.1 23.4 -14.9 4 17.9 WNW 28 44 15 24 1016.5 1016.0 0.0
16/12:49pm 31.9 23.2 -15.1 4 17.8 WNW 28 46 15 25 1016.5 1016.0 0.0
16/12:30pm 31.6 22.5 -15.3 4 17.6 WNW 30 43 16 23 1016.8 1016.4 0.0
16/12:00pm 31.7 23.0 -15.2 4 17.7 WNW 28 41 15 22 1017.1 1016.7 0.0
16/11:30am 30.9 22.7 -13.1 5 17.0 NW 26 39 14 21 1017.2 1016.8 0.0
16/11:00am 30.9 23.1 -13.1 5 17.0 NNW 24 37 13 20 1017.6 1017.2 0.0
16/10:30am 29.5 21.2 -14.0 5 16.4 NNW 26 35 14 19 1017.7 1017.3 0.0
16/10:00am 27.7 19.9 -13.1 6 15.3 N 24 30 13 16 1018.0 1017.6 0.0
16/09:30am 26.3 18.8 -14.1 6 14.6 N 22 30 12 16 1018.1 1017.7 0.0
16/09:00am 24.0 17.2 -12.2 8 13.2 N 19 24 10 13 1018.2 1017.8 0.0
16/08:30am 22.5 15.4 -13.4 8 12.6 N 20 28 11 15 1018.3 1017.9 0.0
16/08:00am 21.0 14.1 -13.0 9 11.8 N 19 24 10 13 1018.2 1017.8 0.0
16/07:30am 19.6 12.8 -11.6 11 11.0 N 19 22 10 12 1018.0 1017.6 0.0
16/07:00am 19.6 12.8 -11.6 11 10.9 N 19 20 10 11 1017.9 1017.5 0.0
16/06:30am 19.0 12.2 -12.1 11 10.7 N 19 20 10 11 1017.7 1017.3 0.0
16/06:00am 19.6 12.8 -11.6 11 10.9 N 19 20 10 11 1017.7 1017.3 0.0
16/05:30am 19.1 12.7 -12.0 11 10.8 N 17 19 9 10 1017.6 1017.2 0.0
16/05:00am 18.8 12.4 -11.2 12 10.5 N 17 17 9 9 1017.4 1017.0 0.0
16/04:30am 19.2 12.8 -11.9 11 10.8 N 17 19 9 10 1017.4 1017.0 0.0
16/04:00am 19.1 13.5 -10.9 12 10.6 N 13 15 7 8 1017.5 1017.1 0.0
16/03:30am 17.2 14.2 -9.6 15 9.5 CALM 0 0 0 0 1017.8 1017.4 0.0
16/03:00am 17.4 14.4 -9.5 15 9.6 CALM 0 0 0 0 1018.0 1017.6 0.0
16/02:30am 17.2 14.2 -9.6 15 9.5 CALM 0 0 0 0 1018.3 1017.9 0.0
16/02:00am 17.4 13.2 -9.5 15 9.6 N 6 7 3 4 1018.5 1018.1 0.0
16/01:30am 17.9 14.9 -9.9 14 9.9 CALM 0 0 0 0 1018.9 1018.5 0.0
16/01:00am 16.8 12.5 -11.7 13 9.6 SSW 6 7 3 4 1019.2 1018.8 0.0
16/12:30am 18.5 14.1 -12.5 11 10.5 N 6 11 3 6 1019.4 1019.0 0.0
16/12:00am 20.5 15.2 -12.1 10 11.4 N 11 13 6 7 1019.5 1019.1 0.0
 
Date/Time
EST
Temp
°C
App
Temp
°C
Dew
Point
°C
Rel
Hum
%
Delta-T
°C
Wind Press
QNH
hPa
Press
MSL
hPa
Rain since
9am
mm
Dir  Spd
km/h
Gust
km/h
Spd
kts
Gust
kts
15/11:30pm 21.4 15.8 -11.4 10 11.8 N 13 13 7 7 1019.5 1019.1 0.0
15/11:00pm 21.8 16.6 -11.1 10 11.9 N 11 13 6 7 1019.7 1019.3 0.0
15/10:30pm 22.4 16.7 -12.0 9 12.4 N 13 15 7 8 1019.8 1019.4 0.0
15/10:00pm 22.6 16.9 -11.8 9 12.4 N 13 15 7 8 1020.0 1019.6 0.0
15/09:30pm 22.6 16.9 -11.8 9 12.5 N 13 15 7 8 1020.1 1019.7 0.0
15/09:00pm 22.9 17.3 -11.6 9 12.6 NNE 13 13 7 7 1020.1 1019.7 0.0
15/08:30pm 23.1 17.5 -11.5 9 12.7 NE 13 13 7 7 1020.0 1019.6 0.0
15/08:00pm 23.9 18.6 -12.3 8 13.2 NE 11 13 6 7 1020.1 1019.7 0.0
15/07:30pm 24.5 20.0 -11.9 8 13.5 NE 7 9 4 5 1019.9 1019.5 0.0
15/07:00pm 25.5 21.0 -11.1 8 13.8 ENE 7 9 4 5 1019.7 1019.3 0.0
15/06:30pm 26.8 21.9 -11.8 7 14.7 NE 9 9 5 5 1019.6 1019.2 0.0
15/06:00pm 28.6 24.1 -12.4 6 15.7 NNE 7 13 4 7 1019.4 1019.0 0.0
15/05:30pm 29.2 24.7 -12.0 6 16.0 N 7 15 4 8 1019.3 1018.9 0.0
15/05:00pm 29.6 24.7 -11.7 6 16.1 NNE 9 15 5 8 1019.2 1018.8 0.0
15/04:30pm 29.7 24.8 -11.7 6 16.2 N 9 20 5 11 1019.2 1018.8 0.0
15/04:00pm 29.7 23.7 -11.7 6 16.2 NNW 15 22 8 12 1019.3 1018.9 0.0
15/03:30pm 30.2 25.0 -11.3 6 16.5 NNE 11 19 6 10 1019.4 1019.0 0.0
15/03:00pm 29.6 23.2 -11.7 6 16.1 NNE 17 24 9 13 1019.5 1019.1 0.0
15/02:30pm 29.5 22.7 -11.8 6 16.1 N 19 28 10 15 1019.7 1019.3 0.0
15/02:00pm 29.1 22.8 -10.2 7 15.7 NNW 17 32 9 17 1020.3 1019.9 0.0
15/01:30pm 28.7 22.8 -10.5 7 15.5 N 15 26 8 14 1020.7 1020.3 0.0
15/01:00pm 28.2 21.5 -10.8 7 15.2 NNE 19 30 10 16 1021.2 1020.8 0.0
15/12:30pm 28.9 22.2 -10.3 7 15.6 NNE 19 30 10 16 1021.7 1021.4 0.0
15/12:00pm 27.7 20.9 -9.5 8 14.8 NNE 20 28 11 15 1022.5 1022.1 0.0
15/11:30am 27.2 19.7 -8.4 9 14.4 NE 24 32 13 17 1022.8 1022.4 0.0
15/11:00am 26.6 18.6 -10.3 8 14.3 NE 26 33 14 18 1023.3 1022.9 0.0
15/10:30am 26.1 18.5 -9.2 9 13.9 ENE 24 30 13 16 1023.7 1023.3 0.0
15/10:00am 24.4 17.3 -7.9 11 12.8 ENE 22 28 12 15 1024.3 1023.9 0.0
15/09:30am 23.1 16.7 -6.8 13 12.0 ENE 19 24 10 13 1024.4 1024.0 0.0
15/09:00am 21.3 16.3 -4.7 17 10.6 ENE 13 17 7 9 1024.8 1024.4 0.0
15/08:30am 19.4 14.7 -4.8 19 9.7 E 11 17 6 9 1024.7 1024.3 0.0
15/08:00am 17.8 13.6 -4.2 22 8.8 SE 9 13 5 7 1024.5 1024.1 0.0
15/07:30am 14.4 10.7 -4.3 27 7.2 S 6 7 3 4 1024.3 1023.9 0.0
15/07:00am 13.9 10.1 -3.4 30 6.7 SSE 7 9 4 5 1023.9 1023.5 0.0
15/06:30am 14.4 10.0 -2.5 31 6.8 ESE 11 11 6 6 1023.5 1023.1 0.0
15/06:00am 13.7 10.2 -2.7 32 6.5 SSE 6 7 3 4 1023.3 1022.9 0.0
15/05:30am 14.0 9.6 -2.4 32 6.6 SE 11 13 6 7 1023.0 1022.6 0.0

Other formats

Comma delimited format used in spreadsheet applications
http://www.bom.gov.au/fwo/IDN60801/IDN60801.95485.axf

JavaScript Object Notation format (JSON) in row-major order
http://www.bom.gov.au/fwo/IDN60801/IDN60801.95485.json

Data quality

Most of these data are generated automatically and are frequently updated. Quality checks on data are not normally performed. It is possible for incorrect values to appear. Refer to information at About Latest Weather Observations and please check the disclaimer before using these data.